Time;durP1;ratioP1;P1;durP2;ratioP2;P2;SDS_P1;SDS_P2;PMS_P1;PMS_P2;Temp;Humidity;BMP_temperature;BMP_pressure;BME280_temperature;BME280_humidity;BME280_pressure;Samples;Min_cycle;Max_cycle;Signal;HPM_P1;HPM_P2
2023/03/23 00:02:32;;;;;;;9.35;5.05;;;24.90;99.90;;;;;;5096116;28;20238;-81
2023/03/23 00:05:03;;;;;;;12.02;5.43;;;25.00;99.90;;;;;;5072241;28;20232;-80
2023/03/23 00:07:34;;;;;;;8.65;4.93;;;25.10;99.90;;;;;;5074989;28;20200;-81
2023/03/23 00:10:07;;;;;;;10.05;5.60;;;25.20;99.90;;;;;;5071927;28;20216;-79
2023/03/23 00:12:41;;;;;;;11.00;5.00;;;25.30;99.90;;;;;;5065041;28;20201;-78
2023/03/23 00:15:16;;;;;;;8.40;4.30;;;25.40;99.90;;;;;;5075148;28;20189;-79
2023/03/23 00:17:49;;;;;;;9.70;4.60;;;25.40;99.90;;;;;;5072519;28;20192;-81
2023/03/23 00:20:23;;;;;;;11.40;6.18;;;25.60;99.90;;;;;;5058744;28;20200;-79
2023/03/23 00:23:00;;;;;;;10.10;4.93;;;25.60;99.90;;;;;;5066777;28;20586;-79
2023/03/23 00:25:31;;;;;;;16.83;5.40;;;25.50;99.90;;;;;;5054975;28;20652;-79
2023/03/23 00:28:02;;;;;;;15.88;6.50;;;25.40;99.90;;;;;;5070822;28;20209;-78
2023/03/23 00:30:36;;;;;;;9.52;4.68;;;25.40;99.90;;;;;;5066753;28;20221;-79
2023/03/23 00:33:08;;;;;;;8.27;4.20;;;25.40;99.90;;;;;;5063175;28;20203;-79
2023/03/23 00:35:39;;;;;;;10.95;4.22;;;25.40;99.90;;;;;;5061697;28;20193;-79
2023/03/23 00:38:12;;;;;;;6.82;3.60;;;25.40;99.90;;;;;;5058249;28;20228;-80
2023/03/23 00:40:43;;;;;;;6.15;3.50;;;25.30;99.90;;;;;;5059213;28;20251;-80
2023/03/23 00:43:16;;;;;;;9.15;4.05;;;25.30;99.90;;;;;;5054450;28;20198;-82
2023/03/23 00:45:52;;;;;;;8.25;3.40;;;25.20;99.90;;;;;;5062611;28;20193;-79
2023/03/23 00:48:24;;;;;;;6.10;3.08;;;25.20;99.90;;;;;;5058233;28;20224;-80
2023/03/23 00:50:55;;;;;;;5.35;3.05;;;25.10;99.90;;;;;;5062646;28;20241;-80
2023/03/23 00:53:26;;;;;;;7.72;3.35;;;25.10;99.90;;;;;;5060013;28;20198;-80
2023/03/23 00:55:57;;;;;;;6.85;3.30;;;25.00;99.90;;;;;;5056342;28;20201;-79
2023/03/23 00:58:28;;;;;;;5.03;3.13;;;25.00;99.90;;;;;;5063245;28;20189;-80
2023/03/23 01:01:01;;;;;;;5.53;3.30;;;24.90;99.90;;;;;;5072268;28;20200;-80
2023/03/23 01:03:33;;;;;;;10.88;3.90;;;24.90;99.90;;;;;;5068747;28;20280;-79
2023/03/23 01:06:12;;;;;;;7.00;3.70;;;24.90;99.90;;;;;;5053365;28;20208;-79
2023/03/23 01:08:46;;;;;;;5.05;3.35;;;24.80;99.90;;;;;;5053875;28;20239;-80
2023/03/23 01:11:19;;;;;;;8.90;3.00;;;24.80;99.90;;;;;;5057698;28;20273;-80
2023/03/23 01:13:50;;;;;;;7.13;3.45;;;24.80;99.90;;;;;;5052700;28;20194;-80
2023/03/23 01:16:23;;;;;;;4.88;3.05;;;24.80;99.90;;;;;;5056227;28;20203;-80
2023/03/23 01:18:54;;;;;;;9.55;4.00;;;24.80;99.90;;;;;;5076433;28;20193;-80
2023/03/23 01:21:26;;;;;;;6.65;3.30;;;24.90;99.90;;;;;;5073972;28;20554;-80
2023/03/23 01:23:58;;;;;;;4.55;2.75;;;25.00;99.90;;;;;;5066948;28;20686;-80
2023/03/23 01:26:30;;;;;;;5.25;2.75;;;25.00;99.90;;;;;;5073786;28;20656;-79
2023/03/23 01:29:03;;;;;;;5.95;3.15;;;25.10;99.90;;;;;;5073855;28;20200;-80
2023/03/23 01:31:38;;;;;;;11.82;7.45;;;25.10;99.90;;;;;;5073615;28;20228;-79
2023/03/23 01:34:10;;;;;;;5.93;3.53;;;25.20;99.90;;;;;;5073794;28;20246;-80
2023/03/23 01:36:41;;;;;;;5.22;3.38;;;25.20;99.90;;;;;;5073858;28;20641;-79
2023/03/23 01:39:12;;;;;;;6.05;3.55;;;25.20;99.90;;;;;;5070289;28;20710;-80
2023/03/23 01:41:43;;;;;;;6.43;3.78;;;25.20;99.90;;;;;;5063799;28;20567;-79
2023/03/23 01:44:45;;;;;;;6.70;3.53;;;25.20;99.90;;;;;;5054340;28;20672;-80
2023/03/23 01:47:20;;;;;;;6.07;3.97;;;25.20;99.90;;;;;;5053467;28;20201;-79
2023/03/23 01:49:53;;;;;;;6.47;3.40;;;25.30;99.90;;;;;;5053540;28;20644;-79
2023/03/23 01:52:29;;;;;;;9.30;3.67;;;25.30;99.90;;;;;;5053372;28;20212;-80
2023/03/23 01:55:00;;;;;;;6.45;3.10;;;25.30;99.90;;;;;;5055874;28;20193;-79
2023/03/23 01:57:32;;;;;;;4.53;2.63;;;25.30;99.90;;;;;;5072672;28;20279;-78
2023/03/23 02:00:14;;;;;;;5.47;3.05;;;25.30;99.90;;;;;;5071986;28;20201;-80
2023/03/23 02:02:51;;;;;;;7.15;3.33;;;25.30;99.90;;;;;;5073393;28;20189;-80
2023/03/23 02:05:28;;;;;;;6.60;3.88;;;25.30;99.90;;;;;;5073410;28;20196;-81
2023/03/23 02:08:02;;;;;;;6.47;3.10;;;25.20;99.90;;;;;;5073316;28;20189;-80
2023/03/23 02:10:35;;;;;;;6.32;3.10;;;25.20;99.90;;;;;;5072898;28;20738;-80
2023/03/23 02:13:08;;;;;;;4.60;2.88;;;25.10;99.90;;;;;;5073175;28;20186;-80
2023/03/23 02:15:48;;;;;;;8.23;3.47;;;25.10;99.90;;;;;;5071649;28;20207;-80
2023/03/23 02:18:34;;;;;;;4.95;3.47;;;25.10;99.90;;;;;;5073195;28;20667;-80
2023/03/23 02:21:24;;;;;;;10.68;3.83;;;25.10;99.90;;;;;;5073283;28;20215;-80
2023/03/23 02:24:14;;;;;;;4.90;3.28;;;25.10;99.90;;;;;;5072911;28;20189;-79
2023/03/23 02:26:55;;;;;;;6.00;3.42;;;25.10;99.90;;;;;;5073199;28;20196;-80
2023/03/23 02:29:48;;;;;;;6.70;3.97;;;25.10;99.90;;;;;;5073424;28;20196;-80
2023/03/23 02:32:42;;;;;;;9.82;4.10;;;25.10;99.90;;;;;;5073331;28;20228;-80
2023/03/23 02:35:20;;;;;;;12.57;4.55;;;25.10;99.90;;;;;;5057779;28;20209;-80
2023/03/23 02:37:55;;;;;;;7.40;4.40;;;25.10;99.90;;;;;;5052819;28;20198;-79
2023/03/23 02:40:30;;;;;;;6.93;4.00;;;25.10;99.90;;;;;;5053131;28;20196;-80
2023/03/23 02:43:04;;;;;;;6.95;3.90;;;25.20;99.90;;;;;;5053083;28;20189;-80
2023/03/23 02:45:38;;;;;;;9.07;4.35;;;25.20;99.90;;;;;;5053330;28;20641;-80
2023/03/23 02:48:11;;;;;;;10.30;4.07;;;25.20;99.90;;;;;;5053232;28;20200;-80
2023/03/23 02:50:46;;;;;;;10.20;4.50;;;25.20;99.90;;;;;;5053208;28;20214;-79
2023/03/23 02:53:22;;;;;;;11.77;4.45;;;25.20;99.90;;;;;;5076386;28;20644;-79
2023/03/23 02:55:55;;;;;;;8.00;4.05;;;25.30;99.90;;;;;;5056772;28;20204;-79
2023/03/23 02:58:27;;;;;;;5.68;3.63;;;25.30;99.90;;;;;;5062988;28;20675;-79
2023/03/23 03:00:58;;;;;;;6.30;3.72;;;25.40;99.90;;;;;;5072778;28;20644;-79
2023/03/23 03:03:32;;;;;;;6.72;3.63;;;25.50;99.90;;;;;;5065179;28;20277;-79
2023/03/23 03:06:17;;;;;;;6.90;3.67;;;25.50;99.90;;;;;;5052758;28;20193;-79
2023/03/23 03:08:53;;;;;;;8.20;3.60;;;25.60;99.90;;;;;;5056204;28;20221;-79
2023/03/23 03:11:25;;;;;;;7.30;4.00;;;25.70;99.90;;;;;;5056581;28;20579;-80
2023/03/23 03:14:03;;;;;;;9.10;3.88;;;25.80;99.90;;;;;;5056571;28;20190;-79
2023/03/23 03:16:38;;;;;;;7.07;3.83;;;25.90;99.90;;;;;;5071388;28;20193;-79
2023/03/23 03:19:14;;;;;;;8.02;3.83;;;26.10;99.90;;;;;;5076350;28;20199;-79
2023/03/23 03:21:49;;;;;;;8.25;4.18;;;26.40;99.90;;;;;;5076094;28;20189;-79
2023/03/23 03:24:23;;;;;;;7.15;3.78;;;26.40;99.90;;;;;;5076263;28;20192;-79
2023/03/23 03:26:57;;;;;;;5.03;3.00;;;26.30;99.90;;;;;;5075711;28;20288;-79
2023/03/23 03:29:32;;;;;;;3.83;2.30;;;26.10;99.90;;;;;;5076166;28;20566;-77
2023/03/23 03:32:05;;;;;;;4.22;2.47;;;26.10;99.90;;;;;;5076021;28;20217;-79
2023/03/23 03:34:37;;;;;;;4.93;2.20;;;26.00;99.90;;;;;;5076201;28;20564;-79
2023/03/23 03:37:11;;;;;;;3.63;2.50;;;25.90;99.90;;;;;;5075838;28;20196;-78
2023/03/23 03:39:42;;;;;;;4.18;2.80;;;25.90;99.90;;;;;;5075926;28;20318;-78
2023/03/23 03:42:13;;;;;;;4.43;2.50;;;25.90;99.90;;;;;;5075926;28;20193;-78
2023/03/23 03:44:44;;;;;;;4.03;2.40;;;25.90;99.90;;;;;;5075836;28;20535;-79
2023/03/23 03:47:15;;;;;;;4.20;2.47;;;25.80;99.90;;;;;;5075994;28;20189;-79
2023/03/23 03:49:46;;;;;;;5.90;2.67;;;25.80;99.90;;;;;;5075731;28;20193;-79
2023/03/23 03:52:19;;;;;;;3.97;2.30;;;25.80;99.90;;;;;;5070672;28;20547;-80
2023/03/23 03:54:51;;;;;;;4.78;3.05;;;25.80;99.90;;;;;;5057182;28;20245;-78
2023/03/23 03:57:22;;;;;;;8.43;3.42;;;25.60;99.90;;;;;;5063551;28;20194;-79
2023/03/23 03:59:53;;;;;;;7.93;3.55;;;25.50;99.90;;;;;;5075434;28;20193;-78
2023/03/23 04:02:24;;;;;;;8.85;3.63;;;25.40;99.90;;;;;;5068461;28;20297;-79
2023/03/23 04:04:55;;;;;;;7.93;3.58;;;25.30;99.90;;;;;;5061700;28;20212;-78
2023/03/23 04:07:29;;;;;;;11.18;4.20;;;25.20;99.90;;;;;;5054002;28;20699;-79
2023/03/23 04:10:00;;;;;;;10.05;4.10;;;25.20;99.90;;;;;;5058793;28;20568;-79
2023/03/23 04:12:31;;;;;;;6.80;3.72;;;25.30;99.90;;;;;;5059715;28;20601;-79
2023/03/23 04:15:02;;;;;;;13.05;3.72;;;25.30;99.90;;;;;;5060565;28;20212;-78
2023/03/23 04:17:33;;;;;;;9.65;3.70;;;25.40;99.90;;;;;;5056176;28;20212;-79
2023/03/23 04:20:11;;;;;;;8.05;3.47;;;25.30;99.90;;;;;;5057448;28;20206;-79
2023/03/23 04:22:49;;;;;;;8.93;3.65;;;25.10;99.90;;;;;;5054029;28;20597;-79
2023/03/23 04:25:22;;;;;;;10.63;3.60;;;25.20;99.90;;;;;;5055754;28;20239;-80
2023/03/23 04:27:54;;;;;;;11.95;3.70;;;25.10;99.90;;;;;;5063935;28;20197;-78
2023/03/23 04:30:27;;;;;;;11.45;4.13;;;25.10;99.90;;;;;;5060596;28;20676;-79
2023/03/23 04:33:00;;;;;;;9.77;4.03;;;25.20;99.90;;;;;;5056138;28;20583;-77
2023/03/23 04:35:31;;;;;;;6.05;3.38;;;25.30;99.90;;;;;;5058432;28;20691;-78
2023/03/23 04:38:04;;;;;;;9.57;3.60;;;25.30;99.90;;;;;;5054788;28;20576;-78
2023/03/23 04:40:37;;;;;;;10.45;3.50;;;25.40;99.90;;;;;;5056445;28;20846;-80
2023/03/23 04:43:09;;;;;;;5.72;2.80;;;25.50;99.90;;;;;;5053896;28;20206;-78
2023/03/23 04:45:41;;;;;;;7.68;3.20;;;25.40;99.90;;;;;;5055158;28;20567;-79
2023/03/23 04:48:12;;;;;;;9.43;3.47;;;25.40;99.90;;;;;;5056358;28;20559;-78
2023/03/23 04:50:43;;;;;;;7.63;3.15;;;25.40;99.90;;;;;;5054258;28;20671;-79
2023/03/23 04:53:17;;;;;;;5.50;3.10;;;25.20;99.90;;;;;;5069381;28;20200;-80
2023/03/23 04:55:49;;;;;;;8.15;3.00;;;25.10;99.90;;;;;;5067138;28;20648;-79
2023/03/23 04:58:21;;;;;;;6.53;3.08;;;25.00;99.90;;;;;;5057391;28;20206;-80
2023/03/23 05:00:52;;;;;;;6.40;2.90;;;24.90;99.90;;;;;;5061149;28;20291;-79
2023/03/23 05:03:24;;;;;;;7.70;2.83;;;24.90;99.90;;;;;;5071258;28;20675;-79
2023/03/23 05:05:56;;;;;;;5.70;2.50;;;24.90;99.90;;;;;;5058346;28;20723;-79
2023/03/23 05:08:29;;;;;;;5.97;2.75;;;24.90;99.90;;;;;;5057526;28;20224;-79
2023/03/23 05:11:01;;;;;;;8.25;3.05;;;24.80;99.90;;;;;;5064794;28;20196;-79
2023/03/23 05:13:32;;;;;;;4.28;2.60;;;24.80;99.90;;;;;;5054980;28;20224;-79
2023/03/23 05:16:07;;;;;;;7.00;3.22;;;24.70;99.90;;;;;;5058244;28;20212;-79
2023/03/23 05:18:39;;;;;;;7.40;3.30;;;24.60;99.90;;;;;;5054008;28;20201;-79
2023/03/23 05:21:12;;;;;;;5.68;2.65;;;24.50;99.90;;;;;;5064743;28;20213;-79
2023/03/23 05:23:47;;;;;;;5.43;2.35;;;24.50;99.90;;;;;;5063265;28;20198;-79
2023/03/23 05:26:18;;;;;;;7.15;2.72;;;24.50;99.90;;;;;;5055006;28;20197;-79
2023/03/23 05:28:52;;;;;;;7.20;2.90;;;24.40;99.90;;;;;;5054316;28;20641;-79
2023/03/23 05:31:24;;;;;;;4.18;2.40;;;24.40;99.90;;;;;;5053556;28;20214;-78
2023/03/23 05:33:55;;;;;;;6.80;2.95;;;24.30;99.90;;;;;;5058085;28;20645;-79
2023/03/23 05:36:26;;;;;;;6.55;2.70;;;24.30;99.90;;;;;;5057085;28;20197;-80
2023/03/23 05:38:59;;;;;;;4.00;2.58;;;24.20;99.90;;;;;;5052977;28;20627;-79
2023/03/23 05:41:30;;;;;;;4.38;2.20;;;24.10;99.90;;;;;;5057946;28;20223;-78
2023/03/23 05:44:02;;;;;;;2.28;1.00;;;24.10;99.90;;;;;;5054715;28;20771;-81
2023/03/23 05:46:33;;;;;;;1.50;0.60;;;23.90;99.90;;;;;;5053721;28;20233;-81
2023/03/23 05:49:04;;;;;;;1.35;0.90;;;23.60;99.90;;;;;;5054454;28;20654;-80
2023/03/23 05:51:37;;;;;;;1.55;0.70;;;23.40;99.90;;;;;;5054925;28;20691;-80
2023/03/23 05:54:10;;;;;;;1.42;0.70;;;23.30;99.90;;;;;;5053537;28;20556;-79
2023/03/23 05:56:41;;;;;;;1.55;0.90;;;23.20;99.90;;;;;;5051879;28;20255;-80
2023/03/23 05:59:12;;;;;;;0.90;0.70;;;23.10;99.90;;;;;;5071865;28;20219;-80
2023/03/23 06:01:43;;;;;;;1.42;0.90;;;23.00;99.90;;;;;;5073223;28;20185;-81
2023/03/23 06:04:15;;;;;;;0.75;0.65;;;23.00;99.90;;;;;;5057470;28;20189;-82
2023/03/23 06:06:46;;;;;;;3.58;1.05;;;22.90;99.90;;;;;;5059335;28;20185;-83
2023/03/23 06:09:19;;;;;;;2.05;0.85;;;22.80;99.90;;;;;;5064762;28;20217;-84
2023/03/23 06:11:50;;;;;;;1.45;0.80;;;22.80;99.90;;;;;;5053154;28;20244;-83
2023/03/23 06:14:22;;;;;;;1.38;1.00;;;22.70;99.90;;;;;;5056913;28;20667;-84
2023/03/23 06:16:53;;;;;;;2.53;0.90;;;22.70;99.90;;;;;;5064094;28;20626;-83
2023/03/23 06:19:26;;;;;;;3.28;1.00;;;22.60;99.90;;;;;;5060983;28;20668;-84
2023/03/23 06:21:59;;;;;;;2.88;1.02;;;22.60;99.90;;;;;;5053124;28;20193;-85
2023/03/23 06:24:32;;;;;;;2.25;1.00;;;22.50;99.90;;;;;;5053437;28;20652;-85
2023/03/23 06:27:03;;;;;;;1.20;1.08;;;22.40;99.90;;;;;;5058138;28;20192;-85
2023/03/23 06:29:34;;;;;;;1.52;1.20;;;22.30;99.90;;;;;;5067363;28;20200;-84
2023/03/23 06:32:07;;;;;;;3.67;1.30;;;22.20;99.90;;;;;;5052767;28;20252;-84
2023/03/23 06:34:38;;;;;;;3.30;1.40;;;22.20;99.90;;;;;;5052822;28;20194;-84
2023/03/23 06:37:09;;;;;;;3.58;1.40;;;22.20;99.90;;;;;;5061560;28;20208;-82
2023/03/23 06:39:42;;;;;;;3.40;1.65;;;22.20;99.90;;;;;;5052480;28;20233;-81
2023/03/23 06:42:14;;;;;;;4.45;1.77;;;22.20;99.90;;;;;;5040553;28;20209;-79
2023/03/23 06:44:45;;;;;;;2.90;1.60;;;22.20;99.90;;;;;;5072231;28;20208;-78
2023/03/23 06:47:16;;;;;;;4.38;1.60;;;22.20;99.90;;;;;;5066007;28;20203;-76
2023/03/23 06:49:47;;;;;;;3.65;1.40;;;22.20;99.90;;;;;;5062101;28;20196;-77
2023/03/23 06:52:18;;;;;;;2.58;1.52;;;22.20;99.90;;;;;;5057210;28;20217;-76
2023/03/23 06:54:51;;;;;;;4.18;1.58;;;22.10;99.90;;;;;;5056230;28;20196;-75
2023/03/23 06:57:23;;;;;;;3.22;1.27;;;22.10;99.90;;;;;;5060724;28;20189;-75
2023/03/23 06:59:54;;;;;;;4.22;1.42;;;22.00;99.90;;;;;;5074998;28;20667;-75
2023/03/23 07:02:25;;;;;;;4.60;1.40;;;22.00;99.90;;;;;;5066130;28;20235;-74
2023/03/23 07:04:57;;;;;;;2.83;1.30;;;21.90;99.90;;;;;;5062581;28;20284;-75
2023/03/23 07:07:28;;;;;;;3.63;1.52;;;21.90;99.90;;;;;;5056022;28;20201;-75
2023/03/23 07:10:01;;;;;;;6.13;1.90;;;21.80;99.90;;;;;;5056441;28;20643;-74
2023/03/23 07:12:33;;;;;;;3.92;2.05;;;21.70;99.90;;;;;;5055614;28;20228;-74
2023/03/23 07:15:04;;;;;;;5.60;1.75;;;21.60;99.90;;;;;;5059556;28;20201;-75
2023/03/23 07:17:35;;;;;;;6.47;1.90;;;21.60;99.90;;;;;;5055846;28;20661;-74
2023/03/23 07:20:07;;;;;;;3.10;1.63;;;21.50;99.90;;;;;;5067423;28;20196;-74
2023/03/23 07:22:38;;;;;;;3.58;1.40;;;21.40;99.90;;;;;;5067548;28;20694;-74
2023/03/23 07:25:12;;;;;;;5.50;1.60;;;21.40;99.90;;;;;;5056265;28;20205;-75
2023/03/23 07:27:43;;;;;;;4.18;1.60;;;21.40;99.90;;;;;;5073197;28;20211;-75
2023/03/23 07:30:15;;;;;;;3.47;1.55;;;21.40;99.90;;;;;;5055104;28;20212;-74
2023/03/23 07:32:46;;;;;;;3.00;1.42;;;21.40;99.90;;;;;;5055181;28;20620;-74
2023/03/23 07:35:17;;;;;;;4.82;1.42;;;21.30;99.90;;;;;;5054905;28;20579;-73
2023/03/23 07:37:49;;;;;;;5.53;1.80;;;21.30;99.90;;;;;;5064995;28;20543;-79
2023/03/23 07:40:22;;;;;;;4.38;1.50;;;21.30;99.90;;;;;;5060432;28;20714;-77
2023/03/23 07:42:57;;;;;;;2.58;1.50;;;21.30;99.90;;;;;;5061936;28;20676;-75
2023/03/23 07:45:28;;;;;;;3.28;1.63;;;21.30;99.90;;;;;;5065506;28;20716;-75
2023/03/23 07:48:00;;;;;;;3.00;1.55;;;21.30;99.90;;;;;;5075832;28;20254;-73
2023/03/23 07:50:32;;;;;;;4.32;1.55;;;21.30;99.90;;;;;;5063999;28;20220;-75
2023/03/23 07:53:03;;;;;;;3.35;1.50;;;21.30;99.90;;;;;;5065262;28;20286;-74
2023/03/23 07:55:37;;;;;;;5.13;1.70;;;21.30;99.90;;;;;;5070603;28;20566;-73
2023/03/23 07:58:08;;;;;;;3.42;1.23;;;21.30;99.90;;;;;;5075376;28;20616;-73
2023/03/23 08:00:40;;;;;;;2.97;1.30;;;21.30;99.90;;;;;;5074066;28;20200;-76
2023/03/23 08:03:11;;;;;;;3.55;1.52;;;21.20;99.90;;;;;;5057440;28;20198;-74
2023/03/23 08:05:42;;;;;;;3.10;1.23;;;21.20;99.90;;;;;;5063233;28;20284;-74
2023/03/23 08:08:13;;;;;;;2.42;1.40;;;21.20;99.90;;;;;;5069606;28;20228;-75
2023/03/23 08:10:47;;;;;;;1.75;1.27;;;21.10;99.90;;;;;;5062488;28;20243;-74
2023/03/23 08:13:18;;;;;;;3.85;1.33;;;21.10;99.90;;;;;;5063711;28;20217;-74
2023/03/23 08:15:49;;;;;;;2.90;1.30;;;21.10;99.90;;;;;;5067878;28;20204;-74
2023/03/23 08:18:21;;;;;;;2.00;1.23;;;21.10;99.90;;;;;;5069300;28;20202;-74
2023/03/23 08:20:53;;;;;;;2.58;1.33;;;21.10;99.90;;;;;;5065283;28;20204;-74
2023/03/23 08:23:24;;;;;;;2.20;1.40;;;21.10;99.90;;;;;;5069642;28;20737;-75
2023/03/23 08:25:57;;;;;;;1.70;1.23;;;21.00;99.90;;;;;;5068626;28;20204;-74
2023/03/23 08:28:28;;;;;;;2.08;1.40;;;21.10;99.90;;;;;;5068710;28;20193;-74
2023/03/23 08:31:00;;;;;;;2.30;1.60;;;21.00;99.90;;;;;;5060509;28;20197;-73
2023/03/23 08:33:31;;;;;;;1.52;1.30;;;21.00;99.90;;;;;;5072913;28;20221;-73
2023/03/23 08:36:03;;;;;;;4.18;1.60;;;21.00;99.90;;;;;;5068212;28;20193;-74
2023/03/23 08:38:34;;;;;;;2.53;1.35;;;21.00;99.90;;;;;;5071618;28;20233;-74
2023/03/23 08:41:08;;;;;;;2.65;1.55;;;21.00;99.90;;;;;;5070819;28;20206;-74
2023/03/23 08:43:43;;;;;;;2.53;1.30;;;21.00;99.90;;;;;;5061372;28;20246;-74
2023/03/23 08:46:14;;;;;;;3.20;1.55;;;21.00;99.90;;;;;;5060646;28;20721;-76
2023/03/23 08:48:46;;;;;;;2.78;1.33;;;20.90;99.90;;;;;;5067666;28;20232;-75
2023/03/23 08:51:17;;;;;;;2.97;1.80;;;20.90;99.90;;;;;;5058845;28;20198;-75
2023/03/23 08:53:48;;;;;;;3.55;1.77;;;20.90;99.90;;;;;;5058546;28;20252;-74
2023/03/23 08:56:22;;;;;;;2.03;1.50;;;20.90;99.90;;;;;;5061845;28;20206;-75
2023/03/23 08:58:53;;;;;;;2.33;1.50;;;20.90;99.90;;;;;;5061513;28;20200;-75
2023/03/23 09:01:24;;;;;;;2.88;1.60;;;20.80;99.90;;;;;;5059345;28;20223;-75
2023/03/23 09:03:55;;;;;;;3.45;1.60;;;20.80;99.90;;;;;;5063626;28;20556;-76
2023/03/23 09:06:27;;;;;;;4.57;1.70;;;20.80;99.90;;;;;;5059021;28;20198;-79
2023/03/23 09:08:58;;;;;;;3.42;1.50;;;20.80;99.90;;;;;;5061089;28;20331;-75
2023/03/23 09:11:32;;;;;;;2.15;1.38;;;20.70;99.90;;;;;;5073771;28;20200;-75
2023/03/23 09:14:03;;;;;;;3.05;1.40;;;20.70;99.90;;;;;;5062790;28;20217;-77
2023/03/23 09:16:34;;;;;;;3.50;1.40;;;20.70;99.90;;;;;;5073324;28;20201;-75
2023/03/23 09:19:06;;;;;;;1.58;1.30;;;20.70;99.90;;;;;;5068596;28;20250;-75
2023/03/23 09:21:37;;;;;;;2.70;1.30;;;20.70;99.90;;;;;;5069882;28;20581;-75
2023/03/23 09:24:09;;;;;;;2.35;1.55;;;20.70;99.90;;;;;;5067805;28;20209;-76
2023/03/23 09:26:42;;;;;;;3.88;1.65;;;20.70;99.90;;;;;;5073659;28;20201;-76
2023/03/23 09:29:13;;;;;;;2.10;1.50;;;20.70;99.90;;;;;;5061213;28;20205;-76
2023/03/23 09:31:46;;;;;;;2.00;1.45;;;20.70;99.90;;;;;;5065628;28;20196;-76
2023/03/23 09:34:17;;;;;;;2.63;1.30;;;20.70;99.90;;;;;;5060097;28;20312;-76
2023/03/23 09:36:49;;;;;;;1.65;1.17;;;20.60;99.90;;;;;;5071169;28;20197;-75
2023/03/23 09:39:20;;;;;;;2.28;1.40;;;20.60;99.90;;;;;;5064411;28;20311;-76
2023/03/23 09:42:10;;;;;;;4.53;1.42;;;20.60;99.90;;;;;;5073552;28;20200;-76
2023/03/23 09:44:52;;;;;;;2.33;1.40;;;20.60;99.90;;;;;;5061152;28;20687;-75
2023/03/23 09:47:33;;;;;;;2.95;1.35;;;20.60;99.90;;;;;;5060679;28;20189;-77
2023/03/23 09:50:10;;;;;;;2.67;1.45;;;20.50;99.90;;;;;;5065712;28;20663;-76
2023/03/23 09:52:48;;;;;;;1.08;0.98;;;20.50;99.90;;;;;;5073319;28;20216;-75
2023/03/23 09:55:23;;;;;;;1.38;1.00;;;20.60;99.90;;;;;;5066136;28;20682;-77
2023/03/23 09:58:02;;;;;;;2.42;1.27;;;20.50;99.90;;;;;;5054115;28;20684;-76
2023/03/23 10:00:38;;;;;;;3.30;1.30;;;20.50;99.90;;;;;;5064930;28;20600;-75
2023/03/23 10:03:16;;;;;;;2.65;1.20;;;20.50;99.90;;;;;;5057224;28;20204;-75
2023/03/23 10:05:51;;;;;;;2.03;1.30;;;20.50;99.90;;;;;;5073202;28;20200;-76
2023/03/23 10:08:24;;;;;;;1.85;1.20;;;20.60;99.90;;;;;;5061646;28;20307;-76
2023/03/23 10:11:03;;;;;;;4.03;1.30;;;20.60;99.90;;;;;;5065486;28;20205;-76
2023/03/23 10:13:52;;;;;;;2.83;1.15;;;20.60;99.90;;;;;;5058579;28;20287;-75
2023/03/23 10:16:28;;;;;;;1.48;1.20;;;20.60;99.90;;;;;;5058030;28;20208;-77
2023/03/23 10:19:12;;;;;;;1.48;1.15;;;20.60;99.90;;;;;;5062840;28;20228;-75
2023/03/23 10:21:49;;;;;;;1.75;1.10;;;20.60;99.90;;;;;;5057286;28;20598;-76
2023/03/23 10:24:24;;;;;;;1.33;1.20;;;20.60;99.90;;;;;;5059217;28;20209;-76
2023/03/23 10:27:04;;;;;;;1.23;1.10;;;20.50;99.90;;;;;;5063342;28;20197;-76
2023/03/23 10:29:43;;;;;;;3.20;1.30;;;20.50;99.90;;;;;;5057779;28;20204;-76
2023/03/23 10:32:16;;;;;;;1.95;1.25;;;20.50;99.90;;;;;;5071880;28;20200;-76
2023/03/23 10:34:52;;;;;;;2.47;1.35;;;20.50;99.90;;;;;;5072578;28;20220;-75
2023/03/23 10:37:26;;;;;;;2.25;1.40;;;20.50;99.90;;;;;;5060045;28;20193;-76
2023/03/23 10:39:58;;;;;;;2.22;1.50;;;20.40;99.90;;;;;;5067928;28;20612;-77
2023/03/23 10:42:31;;;;;;;1.42;1.17;;;20.40;99.90;;;;;;5057992;28;20552;-76
2023/03/23 10:45:15;;;;;;;1.40;1.30;;;20.40;99.90;;;;;;5054028;28;20683;-76
2023/03/23 10:47:52;;;;;;;2.25;1.13;;;20.40;99.90;;;;;;5060591;28;20201;-75
2023/03/23 10:50:30;;;;;;;3.67;1.40;;;20.40;99.90;;;;;;5069534;28;20675;-75
2023/03/23 10:53:03;;;;;;;2.08;1.30;;;20.40;99.90;;;;;;5061838;28;20216;-76
2023/03/23 10:55:43;;;;;;;1.40;1.23;;;20.40;99.90;;;;;;5054414;28;20204;-77
2023/03/23 10:58:24;;;;;;;1.23;1.13;;;20.40;99.90;;;;;;5053185;28;20189;-75
2023/03/23 11:00:57;;;;;;;2.08;1.35;;;20.40;99.90;;;;;;5065502;28;20197;-76
2023/03/23 11:03:44;;;;;;;2.92;1.40;;;20.40;99.90;;;;;;5052844;28;20193;-75
2023/03/23 11:06:22;;;;;;;2.28;1.40;;;20.40;99.90;;;;;;5069326;28;20200;-78
2023/03/23 11:08:55;;;;;;;2.38;1.40;;;20.40;99.90;;;;;;5072473;28;20274;-77
2023/03/23 11:11:30;;;;;;;2.00;1.40;;;20.30;99.90;;;;;;5068696;28;20594;-75
2023/03/23 11:14:03;;;;;;;1.63;1.30;;;20.30;99.90;;;;;;5057733;28;20274;-75
2023/03/23 11:16:37;;;;;;;1.90;1.30;;;20.30;99.90;;;;;;5065349;28;20190;-76
2023/03/23 11:19:17;;;;;;;2.15;1.38;;;20.30;99.90;;;;;;5066833;28;20193;-76
2023/03/23 11:21:53;;;;;;;1.92;1.20;;;20.40;99.90;;;;;;5064565;28;20554;-75
2023/03/23 11:24:27;;;;;;;1.98;1.60;;;20.30;99.90;;;;;;5053366;28;20208;-76
2023/03/23 11:27:03;;;;;;;3.65;1.80;;;20.30;99.90;;;;;;5060126;28;20192;-75
2023/03/23 11:29:34;;;;;;;2.95;1.52;;;20.30;99.90;;;;;;5072379;28;20193;-78
2023/03/23 11:32:14;;;;;;;2.55;1.60;;;20.30;99.90;;;;;;5055805;28;20189;-76
2023/03/23 11:34:47;;;;;;;2.28;1.60;;;20.30;99.90;;;;;;5056036;28;20623;-76
2023/03/23 11:37:22;;;;;;;2.05;1.48;;;20.30;99.90;;;;;;5059232;28;20201;-78
2023/03/23 11:39:59;;;;;;;2.90;1.50;;;20.30;99.90;;;;;;5055935;28;20754;-75
2023/03/23 11:42:37;;;;;;;3.97;2.10;;;20.30;99.90;;;;;;5054857;28;20205;-76
2023/03/23 11:45:20;;;;;;;2.60;2.00;;;20.30;99.90;;;;;;5056099;28;20270;-75
2023/03/23 11:48:03;;;;;;;3.45;1.80;;;20.30;99.90;;;;;;5062826;28;20197;-75
2023/03/23 11:50:37;;;;;;;3.70;2.53;;;20.30;99.90;;;;;;5065295;28;20555;-75
2023/03/23 11:53:16;;;;;;;3.88;2.63;;;20.30;99.90;;;;;;5065104;28;20204;-77
2023/03/23 11:56:02;;;;;;;5.18;3.40;;;20.30;99.90;;;;;;5055741;28;20197;-75
2023/03/23 11:58:34;;;;;;;6.13;4.03;;;20.20;99.90;;;;;;5055653;28;20566;-75
2023/03/23 12:01:14;;;;;;;5.45;3.30;;;20.20;99.90;;;;;;5062970;28;20223;-76
2023/03/23 12:04:02;;;;;;;5.03;3.72;;;20.20;99.90;;;;;;5058635;28;20212;-77
2023/03/23 12:06:44;;;;;;;5.05;3.40;;;20.20;99.90;;;;;;5062605;28;20197;-75
2023/03/23 12:09:26;;;;;;;5.53;3.47;;;20.20;99.90;;;;;;5057588;28;20197;-75
2023/03/23 12:12:12;;;;;;;5.97;3.53;;;20.20;99.90;;;;;;5064967;28;20189;-75
2023/03/23 12:14:50;;;;;;;6.32;3.75;;;20.20;99.90;;;;;;5067399;28;20221;-75
2023/03/23 12:17:31;;;;;;;5.68;3.45;;;20.20;99.90;;;;;;5060308;28;20279;-76
2023/03/23 12:20:20;;;;;;;4.78;3.30;;;20.10;99.90;;;;;;5059740;28;20201;-76
2023/03/23 12:23:05;;;;;;;4.05;3.03;;;20.10;99.90;;;;;;5068578;28;20197;-75
2023/03/23 12:26:00;;;;;;;4.00;2.88;;;20.20;99.90;;;;;;5066673;28;20204;-76
2023/03/23 12:28:45;;;;;;;4.15;3.03;;;20.20;99.90;;;;;;5057444;28;20192;-76
2023/03/23 12:31:23;;;;;;;5.00;3.13;;;20.20;99.90;;;;;;5054367;28;20256;-77
2023/03/23 12:34:00;;;;;;;5.93;3.42;;;20.20;99.90;;;;;;5054410;28;20217;-75
2023/03/23 12:36:43;;;;;;;5.00;3.00;;;20.20;99.90;;;;;;5059436;28;20591;-78
2023/03/23 12:39:53;;;;;;;3.63;2.97;;;20.10;99.90;;;;;;5059442;28;20233;-75
2023/03/23 12:42:32;;;;;;;5.38;3.20;;;20.10;99.90;;;;;;5058087;28;20189;-77
2023/03/23 12:45:18;;;;;;;5.32;3.20;;;20.10;99.90;;;;;;5058961;28;20198;-75
2023/03/23 12:47:52;;;;;;;5.80;3.22;;;20.10;99.90;;;;;;5054135;28;20193;-76
2023/03/23 12:50:30;;;;;;;4.90;3.20;;;20.10;99.90;;;;;;5073721;28;20205;-76
2023/03/23 12:53:08;;;;;;;4.72;2.90;;;20.10;99.90;;;;;;5074780;28;20610;-75
2023/03/23 12:55:44;;;;;;;4.97;3.22;;;20.10;99.90;;;;;;5071437;28;20205;-75
2023/03/23 12:58:19;;;;;;;4.38;3.00;;;20.10;99.90;;;;;;5074775;28;20192;-75
2023/03/23 13:01:00;;;;;;;5.43;3.22;;;20.10;99.90;;;;;;5061931;28;20649;-75
2023/03/23 13:03:42;;;;;;;5.32;3.42;;;20.10;99.90;;;;;;5053916;28;20193;-75
2023/03/23 13:06:20;;;;;;;8.93;3.33;;;20.10;99.90;;;;;;5056521;28;20301;-76
2023/03/23 13:08:56;;;;;;;5.43;3.60;;;20.10;99.90;;;;;;5061229;28;20215;-75
2023/03/23 13:11:34;;;;;;;7.43;3.47;;;20.00;99.90;;;;;;5061183;28;20215;-75
2023/03/23 13:14:21;;;;;;;7.07;3.67;;;20.00;99.90;;;;;;5062229;28;20258;-75
2023/03/23 13:17:03;;;;;;;6.47;3.30;;;20.00;99.90;;;;;;5056429;28;20205;-76
2023/03/23 13:19:57;;;;;;;5.75;3.38;;;20.00;99.90;;;;;;5054616;28;20194;-76
2023/03/23 13:22:34;;;;;;;6.72;3.80;;;20.00;99.90;;;;;;5055812;28;20201;-76
2023/03/23 13:25:13;;;;;;;6.13;3.38;;;20.00;99.90;;;;;;5062108;28;20562;-77